sensor_id;sensor_type;location;lat;lon;timestamp;pressure;altitude;pressure_sealevel;temperature;humidity
7109;BME280;29079;41.930;25.558;2023-05-18T00:00:35;99006.53;;;12.75;100.00
7109;BME280;29079;41.930;25.558;2023-05-18T00:03:24;99013.53;;;12.68;100.00
7109;BME280;29079;41.930;25.558;2023-05-18T00:06:14;99018.41;;;12.73;100.00
7109;BME280;29079;41.930;25.558;2023-05-18T00:09:02;99022.88;;;12.72;100.00
7109;BME280;29079;41.930;25.558;2023-05-18T00:11:50;99000.78;;;12.62;100.00
7109;BME280;29079;41.930;25.558;2023-05-18T00:14:38;99018.34;;;12.64;100.00
7109;BME280;29079;41.930;25.558;2023-05-18T00:17:26;99023.16;;;12.52;100.00
7109;BME280;29079;41.930;25.558;2023-05-18T00:20:15;99022.34;;;12.52;100.00
7109;BME280;29079;41.930;25.558;2023-05-18T00:23:07;99026.94;;;12.76;100.00
7109;BME280;29079;41.930;25.558;2023-05-18T00:26:02;99036.69;;;12.94;100.00
7109;BME280;29079;41.930;25.558;2023-05-18T00:28:50;99031.63;;;12.74;100.00
7109;BME280;29079;41.930;25.558;2023-05-18T00:31:38;99034.09;;;12.67;100.00
7109;BME280;29079;41.930;25.558;2023-05-18T00:34:27;99025.31;;;12.49;100.00
7109;BME280;29079;41.930;25.558;2023-05-18T00:37:17;99026.25;;;12.31;100.00
7109;BME280;29079;41.930;25.558;2023-05-18T00:40:06;99021.06;;;12.30;100.00
7109;BME280;29079;41.930;25.558;2023-05-18T00:42:54;99020.63;;;12.43;100.00
7109;BME280;29079;41.930;25.558;2023-05-18T00:45:42;98993.78;;;12.26;100.00
7109;BME280;29079;41.930;25.558;2023-05-18T00:48:30;99020.44;;;12.44;100.00
7109;BME280;29079;41.930;25.558;2023-05-18T00:51:19;99002.91;;;12.50;100.00
7109;BME280;29079;41.930;25.558;2023-05-18T00:54:10;98999.53;;;12.40;100.00
7109;BME280;29079;41.930;25.558;2023-05-18T00:56:58;99005.66;;;12.24;100.00
7109;BME280;29079;41.930;25.558;2023-05-18T00:59:48;99005.31;;;12.27;100.00
7109;BME280;29079;41.930;25.558;2023-05-18T01:02:37;99007.50;;;12.31;100.00
7109;BME280;29079;41.930;25.558;2023-05-18T01:05:28;99010.41;;;12.38;100.00
7109;BME280;29079;41.930;25.558;2023-05-18T01:08:17;99009.91;;;12.43;100.00
7109;BME280;29079;41.930;25.558;2023-05-18T01:11:15;99008.28;;;12.15;100.00
7109;BME280;29079;41.930;25.558;2023-05-18T01:14:12;99012.75;;;12.07;100.00
7109;BME280;29079;41.930;25.558;2023-05-18T01:17:07;99014.06;;;12.02;100.00
7109;BME280;29079;41.930;25.558;2023-05-18T01:23:44;99021.75;;;11.79;100.00
7109;BME280;29079;41.930;25.558;2023-05-18T01:26:40;99010.91;;;11.81;100.00
7109;BME280;29079;41.930;25.558;2023-05-18T01:29:31;99018.59;;;11.84;100.00
7109;BME280;29079;41.930;25.558;2023-05-18T01:32:20;99019.59;;;11.83;100.00
7109;BME280;29079;41.930;25.558;2023-05-18T01:35:08;99022.66;;;11.88;100.00
7109;BME280;29079;41.930;25.558;2023-05-18T01:37:56;99029.38;;;11.92;100.00
7109;BME280;29079;41.930;25.558;2023-05-18T01:40:51;99034.25;;;11.97;100.00
7109;BME280;29079;41.930;25.558;2023-05-18T01:43:47;99046.47;;;11.99;100.00
7109;BME280;29079;41.930;25.558;2023-05-18T01:46:45;99059.06;;;11.89;100.00
7109;BME280;29079;41.930;25.558;2023-05-18T01:49:41;99062.16;;;11.76;100.00
7109;BME280;29079;41.930;25.558;2023-05-18T01:52:34;99060.69;;;11.82;100.00
7109;BME280;29079;41.930;25.558;2023-05-18T01:55:24;99062.03;;;11.86;100.00
7109;BME280;29079;41.930;25.558;2023-05-18T01:58:16;99060.69;;;12.00;100.00
7109;BME280;29079;41.930;25.558;2023-05-18T02:01:07;99074.53;;;11.95;100.00
7109;BME280;29079;41.930;25.558;2023-05-18T02:03:55;99071.44;;;11.90;100.00
7109;BME280;29079;41.930;25.558;2023-05-18T02:06:43;99074.13;;;11.90;100.00
7109;BME280;29079;41.930;25.558;2023-05-18T02:09:31;99076.50;;;11.93;100.00
7109;BME280;29079;41.930;25.558;2023-05-18T02:12:19;99083.91;;;11.81;100.00
7109;BME280;29079;41.930;25.558;2023-05-18T02:15:08;99056.75;;;11.68;100.00
7109;BME280;29079;41.930;25.558;2023-05-18T02:17:58;99064.28;;;11.73;100.00
7109;BME280;29079;41.930;25.558;2023-05-18T02:20:46;99086.81;;;11.88;100.00
7109;BME280;29079;41.930;25.558;2023-05-18T02:23:34;99085.63;;;11.91;100.00
7109;BME280;29079;41.930;25.558;2023-05-18T02:26:22;99087.13;;;11.85;100.00
7109;BME280;29079;41.930;25.558;2023-05-18T02:29:10;99082.25;;;11.98;100.00
7109;BME280;29079;41.930;25.558;2023-05-18T02:32:00;99084.53;;;11.93;100.00
7109;BME280;29079;41.930;25.558;2023-05-18T02:34:51;99082.56;;;11.95;100.00
7109;BME280;29079;41.930;25.558;2023-05-18T02:37:40;99087.28;;;12.01;100.00
7109;BME280;29079;41.930;25.558;2023-05-18T02:40:29;99093.75;;;11.99;100.00
7109;BME280;29079;41.930;25.558;2023-05-18T02:43:18;99098.94;;;12.00;100.00
7109;BME280;29079;41.930;25.558;2023-05-18T02:46:06;99100.47;;;12.03;100.00
7109;BME280;29079;41.930;25.558;2023-05-18T02:48:55;99106.88;;;12.10;100.00
7109;BME280;29079;41.930;25.558;2023-05-18T02:51:44;99121.25;;;12.09;100.00
7109;BME280;29079;41.930;25.558;2023-05-18T02:54:32;99127.03;;;12.23;100.00
7109;BME280;29079;41.930;25.558;2023-05-18T02:57:20;99122.72;;;12.30;100.00
7109;BME280;29079;41.930;25.558;2023-05-18T03:00:09;99117.59;;;12.10;100.00
7109;BME280;29079;41.930;25.558;2023-05-18T03:02:58;99122.69;;;12.22;100.00
7109;BME280;29079;41.930;25.558;2023-05-18T03:05:48;99122.22;;;12.26;100.00
7109;BME280;29079;41.930;25.558;2023-05-18T03:08:39;99115.50;;;12.22;100.00
7109;BME280;29079;41.930;25.558;2023-05-18T03:11:28;99086.56;;;11.99;100.00
7109;BME280;29079;41.930;25.558;2023-05-18T03:14:16;99122.38;;;12.07;100.00
7109;BME280;29079;41.930;25.558;2023-05-18T03:17:04;99115.22;;;12.07;100.00
7109;BME280;29079;41.930;25.558;2023-05-18T03:19:52;99128.63;;;12.33;100.00
7109;BME280;29079;41.930;25.558;2023-05-18T03:22:40;99142.78;;;12.26;100.00
7109;BME280;29079;41.930;25.558;2023-05-18T03:25:29;99141.25;;;12.49;100.00
7109;BME280;29079;41.930;25.558;2023-05-18T03:28:18;99124.00;;;12.44;100.00
7109;BME280;29079;41.930;25.558;2023-05-18T03:31:06;99134.75;;;12.52;100.00
7109;BME280;29079;41.930;25.558;2023-05-18T03:33:54;99140.38;;;12.41;100.00
7109;BME280;29079;41.930;25.558;2023-05-18T03:36:42;99139.72;;;12.47;100.00
7109;BME280;29079;41.930;25.558;2023-05-18T03:39:33;99140.81;;;12.62;100.00
7109;BME280;29079;41.930;25.558;2023-05-18T03:42:22;99137.22;;;12.45;100.00
7109;BME280;29079;41.930;25.558;2023-05-18T03:45:11;99139.16;;;12.61;100.00
7109;BME280;29079;41.930;25.558;2023-05-18T03:48:00;99143.28;;;12.56;100.00
7109;BME280;29079;41.930;25.558;2023-05-18T03:50:48;99143.53;;;12.36;100.00
7109;BME280;29079;41.930;25.558;2023-05-18T03:53:36;99141.28;;;12.31;100.00
7109;BME280;29079;41.930;25.558;2023-05-18T03:56:24;99139.25;;;12.51;100.00
7109;BME280;29079;41.930;25.558;2023-05-18T03:59:14;99138.63;;;12.58;100.00
7109;BME280;29079;41.930;25.558;2023-05-18T04:02:02;99135.75;;;12.51;100.00
7109;BME280;29079;41.930;25.558;2023-05-18T04:04:50;99136.88;;;12.48;100.00
7109;BME280;29079;41.930;25.558;2023-05-18T04:07:39;99148.91;;;12.44;100.00
7109;BME280;29079;41.930;25.558;2023-05-18T04:10:32;99153.66;;;12.50;100.00
7109;BME280;29079;41.930;25.558;2023-05-18T04:13:20;99159.41;;;12.38;100.00
7109;BME280;29079;41.930;25.558;2023-05-18T04:16:09;99163.56;;;12.58;100.00
7109;BME280;29079;41.930;25.558;2023-05-18T04:18:59;99170.59;;;12.59;100.00
7109;BME280;29079;41.930;25.558;2023-05-18T04:21:47;99169.38;;;12.53;100.00
7109;BME280;29079;41.930;25.558;2023-05-18T04:24:35;99173.47;;;12.66;100.00
7109;BME280;29079;41.930;25.558;2023-05-18T04:27:23;99174.19;;;12.76;100.00
7109;BME280;29079;41.930;25.558;2023-05-18T04:30:12;99176.69;;;12.69;100.00
7109;BME280;29079;41.930;25.558;2023-05-18T04:33:01;99181.72;;;12.73;100.00
7109;BME280;29079;41.930;25.558;2023-05-18T04:35:50;99183.97;;;12.85;100.00
7109;BME280;29079;41.930;25.558;2023-05-18T04:38:40;99181.06;;;12.79;100.00
7109;BME280;29079;41.930;25.558;2023-05-18T04:41:29;99186.97;;;12.82;100.00
7109;BME280;29079;41.930;25.558;2023-05-18T04:44:19;99188.44;;;12.85;100.00
7109;BME280;29079;41.930;25.558;2023-05-18T04:47:07;99191.13;;;12.85;100.00
7109;BME280;29079;41.930;25.558;2023-05-18T04:49:57;99195.34;;;12.87;100.00
7109;BME280;29079;41.930;25.558;2023-05-18T04:52:46;99037.50;;;11.91;100.00
7109;BME280;29079;41.930;25.558;2023-05-18T04:55:34;99192.34;;;12.91;100.00
7109;BME280;29079;41.930;25.558;2023-05-18T04:58:22;99200.97;;;12.76;100.00
7109;BME280;29079;41.930;25.558;2023-05-18T05:01:10;99201.56;;;12.96;100.00
7109;BME280;29079;41.930;25.558;2023-05-18T05:04:01;99205.41;;;12.94;100.00
7109;BME280;29079;41.930;25.558;2023-05-18T05:06:50;99207.16;;;13.03;100.00
7109;BME280;29079;41.930;25.558;2023-05-18T05:09:38;99217.00;;;13.02;100.00
7109;BME280;29079;41.930;25.558;2023-05-18T05:12:26;99146.44;;;12.51;100.00
7109;BME280;29079;41.930;25.558;2023-05-18T05:15:15;99212.56;;;12.85;100.00
7109;BME280;29079;41.930;25.558;2023-05-18T05:18:03;99220.31;;;12.96;100.00
7109;BME280;29079;41.930;25.558;2023-05-18T05:20:52;99220.88;;;13.08;100.00
7109;BME280;29079;41.930;25.558;2023-05-18T05:23:41;99217.59;;;13.22;100.00
7109;BME280;29079;41.930;25.558;2023-05-18T05:26:30;99230.50;;;13.19;100.00
7109;BME280;29079;41.930;25.558;2023-05-18T05:29:18;99224.84;;;13.30;100.00
7109;BME280;29079;41.930;25.558;2023-05-18T05:32:07;99234.00;;;13.19;100.00
7109;BME280;29079;41.930;25.558;2023-05-18T05:34:55;99226.41;;;13.06;100.00
7109;BME280;29079;41.930;25.558;2023-05-18T05:37:43;99246.91;;;13.16;100.00
7109;BME280;29079;41.930;25.558;2023-05-18T05:40:33;99237.94;;;13.33;100.00
7109;BME280;29079;41.930;25.558;2023-05-18T05:43:21;99242.16;;;13.10;100.00
7109;BME280;29079;41.930;25.558;2023-05-18T05:46:10;99244.66;;;13.11;100.00
7109;BME280;29079;41.930;25.558;2023-05-18T05:48:58;99248.56;;;13.17;100.00
7109;BME280;29079;41.930;25.558;2023-05-18T05:51:47;99250.63;;;13.31;100.00
7109;BME280;29079;41.930;25.558;2023-05-18T05:54:35;99256.72;;;13.41;100.00
7109;BME280;29079;41.930;25.558;2023-05-18T05:57:25;99241.50;;;13.42;100.00
7109;BME280;29079;41.930;25.558;2023-05-18T06:00:13;99258.78;;;13.48;100.00
7109;BME280;29079;41.930;25.558;2023-05-18T06:03:01;99263.16;;;13.57;100.00
7109;BME280;29079;41.930;25.558;2023-05-18T06:05:50;99264.75;;;13.84;100.00
7109;BME280;29079;41.930;25.558;2023-05-18T06:08:38;99264.25;;;13.81;100.00
7109;BME280;29079;41.930;25.558;2023-05-18T06:11:26;99263.28;;;13.90;100.00
7109;BME280;29079;41.930;25.558;2023-05-18T06:14:15;99261.56;;;13.81;100.00
7109;BME280;29079;41.930;25.558;2023-05-18T06:17:03;99266.75;;;13.82;100.00
7109;BME280;29079;41.930;25.558;2023-05-18T06:19:52;99272.69;;;14.10;100.00
7109;BME280;29079;41.930;25.558;2023-05-18T06:22:40;99225.72;;;13.98;100.00
7109;BME280;29079;41.930;25.558;2023-05-18T06:25:29;99280.25;;;14.32;100.00
7109;BME280;29079;41.930;25.558;2023-05-18T06:28:17;99268.66;;;14.23;100.00
7109;BME280;29079;41.930;25.558;2023-05-18T06:31:07;99280.25;;;14.56;100.00
7109;BME280;29079;41.930;25.558;2023-05-18T06:33:55;99280.63;;;14.94;100.00
7109;BME280;29079;41.930;25.558;2023-05-18T06:36:43;99287.34;;;14.66;100.00
7109;BME280;29079;41.930;25.558;2023-05-18T06:39:32;99283.97;;;14.96;100.00
7109;BME280;29079;41.930;25.558;2023-05-18T06:42:20;99282.13;;;14.80;100.00
7109;BME280;29079;41.930;25.558;2023-05-18T06:45:09;99278.03;;;15.18;100.00
7109;BME280;29079;41.930;25.558;2023-05-18T06:47:58;99278.59;;;14.96;100.00
7109;BME280;29079;41.930;25.558;2023-05-18T06:50:46;99284.34;;;15.41;100.00
7109;BME280;29079;41.930;25.558;2023-05-18T06:53:34;99290.91;;;15.39;100.00
7109;BME280;29079;41.930;25.558;2023-05-18T06:56:22;99289.44;;;15.20;100.00
7109;BME280;29079;41.930;25.558;2023-05-18T06:59:11;99299.38;;;15.19;100.00
7109;BME280;29079;41.930;25.558;2023-05-18T07:01:59;99302.81;;;15.44;100.00
7109;BME280;29079;41.930;25.558;2023-05-18T07:04:50;99312.63;;;15.21;100.00
7109;BME280;29079;41.930;25.558;2023-05-18T07:07:38;99306.56;;;15.35;100.00
7109;BME280;29079;41.930;25.558;2023-05-18T07:10:26;99319.19;;;15.18;100.00
7109;BME280;29079;41.930;25.558;2023-05-18T07:13:14;99319.13;;;15.35;100.00
7109;BME280;29079;41.930;25.558;2023-05-18T07:16:02;99305.84;;;15.49;100.00
7109;BME280;29079;41.930;25.558;2023-05-18T07:18:50;99316.53;;;15.58;100.00
7109;BME280;29079;41.930;25.558;2023-05-18T07:21:40;99325.91;;;15.22;100.00
7109;BME280;29079;41.930;25.558;2023-05-18T07:24:28;99313.84;;;15.58;100.00
7109;BME280;29079;41.930;25.558;2023-05-18T07:27:16;99324.22;;;15.77;100.00
7109;BME280;29079;41.930;25.558;2023-05-18T07:30:05;99330.44;;;15.78;100.00
7109;BME280;29079;41.930;25.558;2023-05-18T07:32:54;99329.63;;;15.69;100.00
7109;BME280;29079;41.930;25.558;2023-05-18T07:35:43;99327.78;;;16.09;100.00
7109;BME280;29079;41.930;25.558;2023-05-18T07:38:32;99336.25;;;15.98;100.00
7109;BME280;29079;41.930;25.558;2023-05-18T07:41:21;99336.97;;;15.92;96.94
7109;BME280;29079;41.930;25.558;2023-05-18T07:44:09;99335.34;;;15.74;99.57
7109;BME280;29079;41.930;25.558;2023-05-18T07:46:57;99336.06;;;15.99;100.00
7109;BME280;29079;41.930;25.558;2023-05-18T07:49:45;99334.66;;;15.80;99.25
7109;BME280;29079;41.930;25.558;2023-05-18T07:52:33;99330.28;;;15.71;99.24
7109;BME280;29079;41.930;25.558;2023-05-18T07:55:22;99347.88;;;16.22;97.15
7109;BME280;29079;41.930;25.558;2023-05-18T07:58:10;99340.31;;;15.94;96.84
7109;BME280;29079;41.930;25.558;2023-05-18T08:00:58;99341.31;;;16.24;95.35
7109;BME280;29079;41.930;25.558;2023-05-18T08:03:47;99359.16;;;16.25;100.00
7109;BME280;29079;41.930;25.558;2023-05-18T08:06:35;99356.81;;;16.45;100.00
7109;BME280;29079;41.930;25.558;2023-05-18T08:09:23;99359.38;;;16.15;94.27
7109;BME280;29079;41.930;25.558;2023-05-18T08:12:12;99359.69;;;15.89;92.34
7109;BME280;29079;41.930;25.558;2023-05-18T08:15:00;99358.63;;;16.30;90.02
7109;BME280;29079;41.930;25.558;2023-05-18T08:17:48;99359.16;;;16.25;99.10
7109;BME280;29079;41.930;25.558;2023-05-18T08:20:37;99369.47;;;16.68;100.00
7109;BME280;29079;41.930;25.558;2023-05-18T08:23:25;99363.66;;;16.33;100.00
7109;BME280;29079;41.930;25.558;2023-05-18T08:26:13;99374.72;;;16.07;94.17
7109;BME280;29079;41.930;25.558;2023-05-18T08:29:03;99377.25;;;16.08;98.37
7109;BME280;29079;41.930;25.558;2023-05-18T08:31:55;99377.25;;;16.08;100.00
7109;BME280;29079;41.930;25.558;2023-05-18T08:34:43;99382.81;;;16.07;98.91
7109;BME280;29079;41.930;25.558;2023-05-18T08:37:32;99384.91;;;15.88;98.27
7109;BME280;29079;41.930;25.558;2023-05-18T08:40:24;99382.78;;;16.15;100.00
7109;BME280;29079;41.930;25.558;2023-05-18T08:43:19;99368.84;;;16.03;98.43
7109;BME280;29079;41.930;25.558;2023-05-18T08:46:15;99384.50;;;16.08;96.03
7109;BME280;29079;41.930;25.558;2023-05-18T08:49:08;99389.13;;;15.82;94.46
7109;BME280;29079;41.930;25.558;2023-05-18T08:52:00;99394.47;;;15.99;95.07
7109;BME280;29079;41.930;25.558;2023-05-18T08:54:50;99346.25;;;15.81;93.75
7109;BME280;29079;41.930;25.558;2023-05-18T08:57:41;99389.63;;;16.17;96.97
7109;BME280;29079;41.930;25.558;2023-05-18T09:00:31;99401.03;;;16.28;96.80
7109;BME280;29079;41.930;25.558;2023-05-18T09:03:22;99404.13;;;16.16;94.34
7109;BME280;29079;41.930;25.558;2023-05-18T09:06:11;99399.66;;;16.00;90.50
7109;BME280;29079;41.930;25.558;2023-05-18T09:09:01;99400.09;;;16.12;89.07
7109;BME280;29079;41.930;25.558;2023-05-18T09:11:53;99398.28;;;16.05;88.27
7109;BME280;29079;41.930;25.558;2023-05-18T09:14:42;99399.31;;;16.04;85.80
7109;BME280;29079;41.930;25.558;2023-05-18T09:17:30;99404.88;;;16.02;89.98
7109;BME280;29079;41.930;25.558;2023-05-18T09:20:20;99406.47;;;16.19;87.03
7109;BME280;29079;41.930;25.558;2023-05-18T09:23:10;99408.31;;;16.19;88.22
7109;BME280;29079;41.930;25.558;2023-05-18T09:25:59;99404.59;;;16.20;89.78
7109;BME280;29079;41.930;25.558;2023-05-18T09:28:51;99401.25;;;16.18;91.55
7109;BME280;29079;41.930;25.558;2023-05-18T09:31:39;99408.94;;;16.29;90.55
7109;BME280;29079;41.930;25.558;2023-05-18T09:34:38;99417.19;;;16.28;89.01
7109;BME280;29079;41.930;25.558;2023-05-18T09:37:27;99416.78;;;16.08;85.49
7109;BME280;29079;41.930;25.558;2023-05-18T09:40:16;99416.75;;;16.16;88.23
7109;BME280;29079;41.930;25.558;2023-05-18T09:43:06;99415.22;;;16.13;86.06
7109;BME280;29079;41.930;25.558;2023-05-18T09:45:54;99399.72;;;16.24;88.47
7109;BME280;29079;41.930;25.558;2023-05-18T09:48:45;99408.09;;;16.29;89.97
7109;BME280;29079;41.930;25.558;2023-05-18T09:51:34;99412.75;;;16.35;85.27
7109;BME280;29079;41.930;25.558;2023-05-18T09:54:25;99407.75;;;16.32;84.46
7109;BME280;29079;41.930;25.558;2023-05-18T09:57:13;99423.88;;;16.40;84.22
7109;BME280;29079;41.930;25.558;2023-05-18T10:00:03;99420.00;;;16.43;82.98
7109;BME280;29079;41.930;25.558;2023-05-18T10:02:56;99417.75;;;16.46;85.72
7109;BME280;29079;41.930;25.558;2023-05-18T10:05:45;99424.50;;;16.42;88.58
7109;BME280;29079;41.930;25.558;2023-05-18T10:08:33;99419.69;;;16.29;83.19
7109;BME280;29079;41.930;25.558;2023-05-18T10:11:23;99416.19;;;16.21;85.21
7109;BME280;29079;41.930;25.558;2023-05-18T10:14:13;99405.53;;;16.04;82.40
7109;BME280;29079;41.930;25.558;2023-05-18T10:17:02;99410.53;;;16.07;84.98
7109;BME280;29079;41.930;25.558;2023-05-18T10:20:01;99402.53;;;15.99;82.87
7109;BME280;29079;41.930;25.558;2023-05-18T10:22:53;99400.84;;;15.98;84.34
7109;BME280;29079;41.930;25.558;2023-05-18T10:25:44;99433.41;;;16.11;82.46
7109;BME280;29079;41.930;25.558;2023-05-18T10:28:37;99434.75;;;16.15;80.90
7109;BME280;29079;41.930;25.558;2023-05-18T10:31:26;99438.72;;;16.28;82.89
7109;BME280;29079;41.930;25.558;2023-05-18T10:34:17;99418.28;;;16.10;80.16
7109;BME280;29079;41.930;25.558;2023-05-18T10:37:06;99441.59;;;16.26;82.24
7109;BME280;29079;41.930;25.558;2023-05-18T10:39:57;99428.66;;;16.22;79.44
7109;BME280;29079;41.930;25.558;2023-05-18T10:42:47;99442.34;;;16.43;82.83
7109;BME280;29079;41.930;25.558;2023-05-18T10:45:39;99447.13;;;16.33;83.04
7109;BME280;29079;41.930;25.558;2023-05-18T10:48:28;99452.50;;;16.33;83.43
7109;BME280;29079;41.930;25.558;2023-05-18T10:51:18;99453.69;;;16.30;81.47
7109;BME280;29079;41.930;25.558;2023-05-18T10:54:10;99456.22;;;16.32;81.08
7109;BME280;29079;41.930;25.558;2023-05-18T10:56:59;99448.81;;;16.34;84.73
7109;BME280;29079;41.930;25.558;2023-05-18T10:59:48;99454.50;;;16.39;85.22
7109;BME280;29079;41.930;25.558;2023-05-18T11:02:38;99450.66;;;16.33;83.33
7109;BME280;29079;41.930;25.558;2023-05-18T11:05:29;99455.72;;;16.28;81.82
7109;BME280;29079;41.930;25.558;2023-05-18T11:08:24;99451.09;;;16.14;79.10
7109;BME280;29079;41.930;25.558;2023-05-18T11:11:13;99461.72;;;16.47;88.28
7109;BME280;29079;41.930;25.558;2023-05-18T11:14:05;99456.84;;;16.42;82.08
7109;BME280;29079;41.930;25.558;2023-05-18T11:16:53;99451.34;;;16.27;79.73
7109;BME280;29079;41.930;25.558;2023-05-18T11:20:13;99464.38;;;16.15;78.25
7109;BME280;29079;41.930;25.558;2023-05-18T11:23:03;99465.47;;;16.29;80.40
7109;BME280;29079;41.930;25.558;2023-05-18T11:25:52;99456.75;;;16.27;82.76
7109;BME280;29079;41.930;25.558;2023-05-18T11:28:41;99465.38;;;16.14;79.02
7109;BME280;29079;41.930;25.558;2023-05-18T11:31:42;99465.38;;;16.14;77.57
7109;BME280;29079;41.930;25.558;2023-05-18T11:34:35;99466.88;;;16.17;77.96
7109;BME280;29079;41.930;25.558;2023-05-18T11:40:45;99459.47;;;16.19;79.51
7109;BME280;29079;41.930;25.558;2023-05-18T11:43:33;99465.72;;;16.51;89.80
7109;BME280;29079;41.930;25.558;2023-05-18T11:46:21;99461.69;;;16.07;78.64
7109;BME280;29079;41.930;25.558;2023-05-18T11:49:09;99475.44;;;16.21;82.38
7109;BME280;29079;41.930;25.558;2023-05-18T11:52:08;99477.22;;;16.36;85.89
7109;BME280;29079;41.930;25.558;2023-05-18T11:55:00;99478.72;;;16.39;82.52
7109;BME280;29079;41.930;25.558;2023-05-18T11:57:51;99490.41;;;16.23;84.65
7109;BME280;29079;41.930;25.558;2023-05-18T12:00:39;99475.00;;;16.48;84.85
7109;BME280;29079;41.930;25.558;2023-05-18T12:03:28;99489.47;;;16.47;83.20
7109;BME280;29079;41.930;25.558;2023-05-18T12:06:18;99488.56;;;16.95;95.23
7109;BME280;29079;41.930;25.558;2023-05-18T12:09:06;99430.66;;;16.82;85.63
7109;BME280;29079;41.930;25.558;2023-05-18T12:11:55;99494.47;;;16.59;85.96
7109;BME280;29079;41.930;25.558;2023-05-18T12:14:46;99421.56;;;16.29;87.04
7109;BME280;29079;41.930;25.558;2023-05-18T12:17:37;99505.66;;;16.39;87.81
7109;BME280;29079;41.930;25.558;2023-05-18T12:20:26;99481.72;;;16.76;92.66
7109;BME280;29079;41.930;25.558;2023-05-18T12:23:15;99497.72;;;16.77;90.42
7109;BME280;29079;41.930;25.558;2023-05-18T12:26:03;99503.25;;;16.92;89.66
7109;BME280;29079;41.930;25.558;2023-05-18T12:28:51;99481.75;;;17.07;90.44
7109;BME280;29079;41.930;25.558;2023-05-18T12:31:41;99438.06;;;16.26;86.65
7109;BME280;29079;41.930;25.558;2023-05-18T12:34:30;99505.03;;;17.00;90.05
7109;BME280;29079;41.930;25.558;2023-05-18T12:37:18;99500.38;;;16.94;94.37
7109;BME280;29079;41.930;25.558;2023-05-18T12:40:15;99506.13;;;16.82;84.92
7109;BME280;29079;41.930;25.558;2023-05-18T12:43:03;99509.38;;;16.78;89.06
7109;BME280;29079;41.930;25.558;2023-05-18T12:45:52;99516.47;;;17.02;92.73
7109;BME280;29079;41.930;25.558;2023-05-18T12:48:45;99467.41;;;16.12;95.94
7109;BME280;29079;41.930;25.558;2023-05-18T12:51:35;99503.69;;;16.33;100.00
7109;BME280;29079;41.930;25.558;2023-05-18T12:54:27;99486.75;;;16.79;97.66
7109;BME280;29079;41.930;25.558;2023-05-18T12:57:15;99516.16;;;16.65;95.38
7109;BME280;29079;41.930;25.558;2023-05-18T13:00:07;99515.56;;;16.78;95.52
7109;BME280;29079;41.930;25.558;2023-05-18T13:03:04;99521.84;;;16.70;97.73
7109;BME280;29079;41.930;25.558;2023-05-18T13:06:04;99521.94;;;17.17;97.90
7109;BME280;29079;41.930;25.558;2023-05-18T13:08:53;99493.47;;;16.91;91.25
7109;BME280;29079;41.930;25.558;2023-05-18T13:11:46;99494.06;;;17.01;96.83
7109;BME280;29079;41.930;25.558;2023-05-18T13:14:45;99518.03;;;17.43;95.90
7109;BME280;29079;41.930;25.558;2023-05-18T13:17:34;99524.13;;;17.60;96.66
7109;BME280;29079;41.930;25.558;2023-05-18T13:20:22;99502.75;;;17.73;92.39
7109;BME280;29079;41.930;25.558;2023-05-18T13:23:13;99519.84;;;17.50;88.26
7109;BME280;29079;41.930;25.558;2023-05-18T13:26:01;99514.13;;;16.99;88.17
7109;BME280;29079;41.930;25.558;2023-05-18T13:28:51;99520.44;;;16.91;90.76
7109;BME280;29079;41.930;25.558;2023-05-18T13:31:39;99496.75;;;16.70;86.97
7109;BME280;29079;41.930;25.558;2023-05-18T13:34:27;99518.63;;;16.75;90.71
7109;BME280;29079;41.930;25.558;2023-05-18T13:37:15;99512.16;;;16.93;87.77
7109;BME280;29079;41.930;25.558;2023-05-18T13:40:06;99514.63;;;17.02;86.51
7109;BME280;29079;41.930;25.558;2023-05-18T13:42:54;99525.53;;;16.78;87.74
7109;BME280;29079;41.930;25.558;2023-05-18T13:45:42;99527.78;;;16.66;87.02
7109;BME280;29079;41.930;25.558;2023-05-18T13:48:31;99525.81;;;16.91;85.60
7109;BME280;29079;41.930;25.558;2023-05-18T13:51:19;99517.50;;;17.01;87.50
7109;BME280;29079;41.930;25.558;2023-05-18T13:54:07;99528.34;;;17.16;80.83
7109;BME280;29079;41.930;25.558;2023-05-18T13:56:56;99511.88;;;17.34;91.36
7109;BME280;29079;41.930;25.558;2023-05-18T13:59:44;99514.31;;;17.20;82.63
7109;BME280;29079;41.930;25.558;2023-05-18T14:02:33;99509.94;;;17.43;80.53
7109;BME280;29079;41.930;25.558;2023-05-18T14:05:21;99507.78;;;17.38;89.89
7109;BME280;29079;41.930;25.558;2023-05-18T14:08:09;99518.94;;;17.73;87.31
7109;BME280;29079;41.930;25.558;2023-05-18T14:10:57;99521.94;;;17.78;90.44
7109;BME280;29079;41.930;25.558;2023-05-18T14:13:47;99515.59;;;17.71;86.51
7109;BME280;29079;41.930;25.558;2023-05-18T14:16:36;99512.34;;;17.14;84.08
7109;BME280;29079;41.930;25.558;2023-05-18T14:19:24;99519.09;;;17.95;90.58
7109;BME280;29079;41.930;25.558;2023-05-18T14:22:12;99523.72;;;17.86;80.44
7109;BME280;29079;41.930;25.558;2023-05-18T14:25:02;99524.91;;;16.99;75.76
7109;BME280;29079;41.930;25.558;2023-05-18T14:27:50;99524.69;;;17.32;83.66
7109;BME280;29079;41.930;25.558;2023-05-18T14:30:39;99527.41;;;17.93;88.92
7109;BME280;29079;41.930;25.558;2023-05-18T14:33:27;99501.97;;;17.49;80.46
7109;BME280;29079;41.930;25.558;2023-05-18T14:36:15;99520.81;;;17.34;77.27
7109;BME280;29079;41.930;25.558;2023-05-18T14:39:07;99514.25;;;17.52;82.69
7109;BME280;29079;41.930;25.558;2023-05-18T14:41:55;99531.72;;;16.86;77.10
7109;BME280;29079;41.930;25.558;2023-05-18T14:44:43;99526.47;;;16.53;80.56
7109;BME280;29079;41.930;25.558;2023-05-18T14:47:33;99527.59;;;16.67;81.43
7109;BME280;29079;41.930;25.558;2023-05-18T14:50:21;99535.63;;;16.44;86.55
7109;BME280;29079;41.930;25.558;2023-05-18T14:53:09;99537.16;;;16.39;82.70
7109;BME280;29079;41.930;25.558;2023-05-18T14:55:57;99477.66;;;16.09;79.65
7109;BME280;29079;41.930;25.558;2023-05-18T14:58:45;99527.44;;;16.69;88.46